Time;durP1;ratioP1;P1;durP2;ratioP2;P2;SDS_P1;SDS_P2;PMS_P1;PMS_P2;Temp;Humidity;BMP_temperature;BMP_pressure;BME280_temperature;BME280_humidity;BME280_pressure;Samples;Min_cycle;Max_cycle;Signal;HPM_P1;HPM_P2
2023/08/07 02:02:29;;;;;;;4.03;1.65;;;;;;;;;;4331137;28;20100;-79
2023/08/07 02:04:56;;;;;;;1.77;1.67;;;;;;;;;;4311384;33;20496;-78
2023/08/07 02:07:22;;;;;;;2.90;1.70;;;;;;;;;;4309703;33;20119;-77
2023/08/07 02:09:48;;;;;;;1.70;1.50;;;;;;;;;;4309598;33;20048;-78
2023/08/07 02:12:14;;;;;;;1.77;1.67;;;;;;;;;;4293393;33;20046;-80
2023/08/07 02:14:40;;;;;;;2.87;2.05;;;;;;;;;;4293749;33;20080;-78
2023/08/07 02:17:06;;;;;;;3.92;2.53;;;;;;;;;;4293578;33;20048;-79
2023/08/07 02:19:32;;;;;;;1.98;1.70;;;;;;;;;;4291693;33;20481;-77
2023/08/07 02:21:58;;;;;;;2.70;1.73;;;;;;;;;;4294455;33;20153;-78
2023/08/07 02:24:25;;;;;;;10.50;1.85;;;;;;;;;;4293871;33;20075;-80
2023/08/07 02:26:51;;;;;;;2.28;1.98;;;;;;;;;;4292793;33;20029;-80
2023/08/07 02:29:19;;;;;;;1.80;1.80;;;;;;;;;;4293825;33;20473;-78
2023/08/07 02:31:44;;;;;;;4.62;1.73;;;;;;;;;;4292756;33;20083;-77
2023/08/07 02:34:11;;;;;;;3.95;1.77;;;;;;;;;;4291674;33;20044;-79
2023/08/07 02:36:37;;;;;;;2.03;1.92;;;;;;;;;;4294133;33;20059;-79
2023/08/07 02:39:04;;;;;;;2.33;2.22;;;;;;;;;;4292630;33;20120;-79
2023/08/07 02:41:31;;;;;;;2.47;1.98;;;;;;;;;;4294224;33;20045;-80
2023/08/07 02:43:57;;;;;;;3.92;1.75;;;;;;;;;;4306311;33;20078;-78
2023/08/07 02:46:23;;;;;;;1.95;1.85;;;;;;;;;;4310153;33;20757;-80
2023/08/07 02:48:49;;;;;;;1.50;1.40;;;;;;;;;;4309545;33;20071;-79
2023/08/07 02:51:16;;;;;;;1.98;1.67;;;;;;;;;;4311026;33;20048;-79
2023/08/07 02:53:42;;;;;;;2.25;2.15;;;;;;;;;;4308415;33;20446;-78
2023/08/07 02:56:08;;;;;;;1.87;1.80;;;;;;;;;;4308100;33;20198;-79
2023/08/07 02:58:34;;;;;;;1.52;1.42;;;;;;;;;;4306808;33;20045;-77
2023/08/07 03:01:08;;;;;;;2.20;2.00;;;;;;;;;;4308062;33;20060;-79
2023/08/07 03:03:35;;;;;;;3.53;1.73;;;;;;;;;;4307668;33;20052;-80
2023/08/07 03:06:01;;;;;;;5.87;1.87;;;;;;;;;;4308666;33;20485;-79
2023/08/07 03:08:27;;;;;;;2.45;1.70;;;;;;;;;;4307375;33;20037;-79
2023/08/07 03:10:55;;;;;;;2.00;1.90;;;;;;;;;;4307533;33;20042;-79
2023/08/07 03:13:26;;;;;;;2.33;2.17;;;;;;;;;;4307196;33;20037;-79
2023/08/07 03:16:01;;;;;;;2.20;2.00;;;;;;;;;;4308379;33;20045;-80
2023/08/07 03:18:28;;;;;;;2.60;2.47;;;;;;;;;;4291289;33;20063;-79
2023/08/07 03:20:55;;;;;;;1.83;1.73;;;;;;;;;;4296232;33;20048;-79
2023/08/07 03:23:22;;;;;;;3.83;2.15;;;;;;;;;;4296054;33;20041;-80
2023/08/07 03:25:48;;;;;;;2.10;2.00;;;;;;;;;;4283400;33;20055;-81
2023/08/07 03:28:14;;;;;;;2.62;2.42;;;;;;;;;;4282784;33;20078;-81
2023/08/07 03:30:41;;;;;;;2.20;2.00;;;;;;;;;;4281720;33;20479;-79
2023/08/07 03:33:08;;;;;;;2.30;2.10;;;;;;;;;;4282788;33;20075;-79
2023/08/07 03:35:35;;;;;;;2.00;1.90;;;;;;;;;;4282626;33;20029;-79
2023/08/07 03:38:01;;;;;;;2.03;1.92;;;;;;;;;;4281633;33;20053;-79
2023/08/07 03:40:27;;;;;;;1.90;1.80;;;;;;;;;;4282383;33;20132;-80
2023/08/07 03:42:55;;;;;;;3.42;2.33;;;;;;;;;;4279997;33;20037;-79
2023/08/07 03:45:21;;;;;;;2.25;2.15;;;;;;;;;;4282005;33;20484;-79
2023/08/07 03:47:47;;;;;;;3.37;1.98;;;;;;;;;;4282054;33;20075;-80
2023/08/07 03:50:14;;;;;;;3.10;2.12;;;;;;;;;;4306117;33;20037;-79
2023/08/07 03:52:40;;;;;;;3.08;1.77;;;;;;;;;;4313345;33;20434;-79
2023/08/07 03:55:06;;;;;;;4.25;2.03;;;;;;;;;;4278917;33;20407;-79
2023/08/07 03:57:32;;;;;;;1.92;1.75;;;;;;;;;;4282335;33;20539;-79
2023/08/07 03:59:59;;;;;;;3.60;2.22;;;;;;;;;;4280459;33;20111;-79
2023/08/07 04:02:29;;;;;;;2.25;2.05;;;;;;;;;;4280551;33;20071;-79
2023/08/07 04:04:55;;;;;;;10.57;2.17;;;;;;;;;;4279425;33;20059;-79
2023/08/07 04:07:22;;;;;;;2.30;2.20;;;;;;;;;;4279648;33;20446;-78
2023/08/07 04:09:48;;;;;;;2.78;2.55;;;;;;;;;;4282170;33;20799;-79
2023/08/07 04:12:14;;;;;;;2.00;1.90;;;;;;;;;;4282325;33;20061;-79
2023/08/07 04:14:40;;;;;;;2.25;2.15;;;;;;;;;;4281981;33;20059;-79
2023/08/07 04:17:07;;;;;;;2.45;2.15;;;;;;;;;;4278323;33;20042;-80
2023/08/07 04:19:33;;;;;;;3.72;2.30;;;;;;;;;;4267888;33;20198;-81
2023/08/07 04:21:59;;;;;;;3.72;2.40;;;;;;;;;;4267448;33;20059;-81
2023/08/07 04:24:25;;;;;;;2.30;2.17;;;;;;;;;;4267614;33;20038;-80
2023/08/07 04:26:53;;;;;;;3.30;2.35;;;;;;;;;;4265951;33;20381;-80
2023/08/07 04:29:19;;;;;;;3.05;2.85;;;;;;;;;;4263385;33;20085;-79
2023/08/07 04:31:45;;;;;;;3.03;2.28;;;;;;;;;;4237573;33;20058;-79
2023/08/07 04:34:12;;;;;;;3.55;2.30;;;;;;;;;;4238298;33;20041;-79
2023/08/07 04:36:38;;;;;;;3.67;2.53;;;;;;;;;;4239182;33;20054;-79
2023/08/07 04:39:04;;;;;;;2.65;2.45;;;;;;;;;;4238809;33;20038;-78
2023/08/07 04:41:31;;;;;;;2.80;2.50;;;;;;;;;;4236052;33;20377;-76
2023/08/07 04:43:57;;;;;;;4.87;2.45;;;;;;;;;;4238195;33;20065;-76
2023/08/07 04:46:23;;;;;;;2.75;2.42;;;;;;;;;;4237274;33;20133;-77
2023/08/07 04:48:49;;;;;;;4.55;2.10;;;;;;;;;;4238554;33;20112;-78
2023/08/07 04:51:15;;;;;;;5.68;2.08;;;;;;;;;;4259970;33;20068;-77
2023/08/07 04:53:41;;;;;;;5.55;2.55;;;;;;;;;;4265297;33;20071;-77
2023/08/07 04:56:08;;;;;;;2.78;2.55;;;;;;;;;;4266771;33;20054;-79
2023/08/07 04:58:34;;;;;;;1.95;1.85;;;;;;;;;;4255281;33;20123;-76
2023/08/07 05:01:00;;;;;;;4.75;2.72;;;;;;;;;;4254444;33;20075;-76
2023/08/07 05:03:27;;;;;;;3.08;2.40;;;;;;;;;;4301667;33;20049;-77
2023/08/07 05:05:59;;;;;;;2.80;2.60;;;;;;;;;;4310162;33;20053;-78
2023/08/07 05:08:26;;;;;;;6.28;3.08;;;;;;;;;;4311773;33;20049;-78
2023/08/07 05:10:52;;;;;;;2.58;2.37;;;;;;;;;;4312199;33;20048;-78
2023/08/07 05:13:18;;;;;;;5.85;2.28;;;;;;;;;;4311703;33;20040;-78
2023/08/07 05:15:47;;;;;;;2.83;2.62;;;;;;;;;;4312820;33;20080;-76
2023/08/07 05:18:13;;;;;;;2.80;2.60;;;;;;;;;;4308613;33;20057;-77
2023/08/07 05:20:39;;;;;;;2.85;2.40;;;;;;;;;;4293772;33;20275;-76
2023/08/07 05:23:05;;;;;;;2.80;2.60;;;;;;;;;;4294244;33;20045;-76
2023/08/07 05:25:32;;;;;;;3.85;2.72;;;;;;;;;;4284782;33;20071;-76
2023/08/07 05:27:58;;;;;;;2.58;2.33;;;;;;;;;;4291746;33;20218;-77
2023/08/07 05:30:24;;;;;;;4.22;2.50;;;;;;;;;;4278582;33;20075;-76
2023/08/07 05:32:50;;;;;;;2.50;2.30;;;;;;;;;;4265100;33;20044;-76
2023/08/07 05:35:16;;;;;;;3.12;2.72;;;;;;;;;;4278739;33;20088;-76
2023/08/07 05:37:42;;;;;;;6.32;2.67;;;;;;;;;;4273612;33;20452;-76
2023/08/07 05:40:11;;;;;;;4.95;2.00;;;;;;;;;;4267278;33;20063;-77
2023/08/07 05:42:37;;;;;;;2.47;2.28;;;;;;;;;;4277338;33;20059;-77
2023/08/07 05:45:04;;;;;;;2.22;2.05;;;;;;;;;;4280869;33;20067;-77
2023/08/07 05:47:31;;;;;;;1.95;1.85;;;;;;;;;;4279742;33;20079;-78
2023/08/07 05:49:58;;;;;;;3.62;2.35;;;;;;;;;;4267394;33;20061;-77
2023/08/07 05:52:24;;;;;;;3.03;2.30;;;;;;;;;;4263377;33;20944;-78
2023/08/07 05:54:50;;;;;;;2.10;1.92;;;;;;;;;;4235737;33;20111;-77
2023/08/07 05:57:17;;;;;;;2.37;2.03;;;;;;;;;;4237834;33;20073;-78
2023/08/07 05:59:43;;;;;;;5.28;1.80;;;;;;;;;;4217786;34;20110;-77
2023/08/07 06:02:13;;;;;;;1.90;1.80;;;;;;;;;;4211573;34;20102;-78
2023/08/07 06:04:40;;;;;;;1.90;1.70;;;;;;;;;;4222235;33;20104;-76
2023/08/07 06:07:07;;;;;;;5.00;2.05;;;;;;;;;;4235200;33;20146;-77
2023/08/07 06:09:33;;;;;;;2.62;1.95;;;;;;;;;;4236526;33;20053;-76
2023/08/07 06:11:59;;;;;;;4.50;1.77;;;;;;;;;;4240759;33;20054;-76
2023/08/07 06:14:25;;;;;;;1.50;1.48;;;;;;;;;;4236599;33;20544;-76
2023/08/07 06:16:52;;;;;;;3.17;1.37;;;;;;;;;;4230321;33;20060;-76
2023/08/07 06:19:19;;;;;;;1.85;1.70;;;;;;;;;;4234093;33;21003;-77
2023/08/07 06:21:45;;;;;;;1.52;1.48;;;;;;;;;;4236601;33;20050;-77
2023/08/07 06:24:12;;;;;;;3.90;2.00;;;;;;;;;;4235869;33;20046;-76
2023/08/07 06:26:38;;;;;;;10.68;1.70;;;;;;;;;;4187683;34;20040;-77
2023/08/07 06:29:04;;;;;;;1.50;1.40;;;;;;;;;;4203229;34;20074;-77
2023/08/07 06:31:30;;;;;;;1.62;1.50;;;;;;;;;;4230737;33;20089;-78
2023/08/07 06:33:59;;;;;;;1.42;1.40;;;;;;;;;;4218226;34;20431;-76
2023/08/07 06:36:26;;;;;;;1.77;1.50;;;;;;;;;;4208465;34;20031;-77
2023/08/07 06:38:52;;;;;;;2.62;1.90;;;;;;;;;;4224094;33;20069;-78
2023/08/07 06:41:18;;;;;;;1.62;1.40;;;;;;;;;;4237226;33;20393;-78
2023/08/07 06:43:45;;;;;;;4.00;1.40;;;;;;;;;;4248239;33;20072;-77
2023/08/07 06:46:11;;;;;;;1.30;1.20;;;;;;;;;;4247800;33;20042;-79
2023/08/07 06:48:37;;;;;;;1.08;0.98;;;;;;;;;;4247970;33;20397;-78
2023/08/07 06:51:03;;;;;;;1.25;1.15;;;;;;;;;;4242380;33;20067;-77
2023/08/07 06:53:30;;;;;;;1.37;1.27;;;;;;;;;;4239325;33;20051;-78
2023/08/07 06:55:56;;;;;;;1.92;1.40;;;;;;;;;;4239769;33;20472;-77
2023/08/07 06:58:22;;;;;;;1.05;1.05;;;;;;;;;;4256178;33;20213;-77
2023/08/07 07:00:48;;;;;;;2.78;1.30;;;;;;;;;;4262429;33;20058;-76
2023/08/07 07:03:15;;;;;;;1.58;1.20;;;;;;;;;;4271907;33;20501;-77
2023/08/07 07:05:42;;;;;;;1.35;1.25;;;;;;;;;;4300810;33;20125;-76
2023/08/07 07:08:15;;;;;;;4.53;1.50;;;;;;;;;;4305473;33;20219;-78
2023/08/07 07:10:41;;;;;;;1.20;1.00;;;;;;;;;;4306444;33;20033;-78
2023/08/07 07:13:09;;;;;;;1.62;1.20;;;;;;;;;;4306295;33;20563;-79
2023/08/07 07:15:35;;;;;;;1.10;1.10;;;;;;;;;;4293739;33;20474;-81
2023/08/07 07:18:02;;;;;;;1.02;1.02;;;;;;;;;;4293678;33;20049;-81
2023/08/07 07:20:28;;;;;;;2.42;1.33;;;;;;;;;;4293314;33;20025;-85
2023/08/07 07:22:55;;;;;;;1.25;1.25;;;;;;;;;;4289949;33;20063;-78
2023/08/07 07:25:21;;;;;;;1.60;1.20;;;;;;;;;;4289087;33;20037;-79
2023/08/07 07:27:47;;;;;;;1.33;1.10;;;;;;;;;;4292788;33;20509;-83
2023/08/07 07:30:13;;;;;;;1.73;1.27;;;;;;;;;;4293469;33;20070;-78
2023/08/07 07:32:40;;;;;;;1.05;1.00;;;;;;;;;;4292072;33;20053;-76
2023/08/07 07:35:06;;;;;;;3.45;0.98;;;;;;;;;;4292886;33;20053;-76
2023/08/07 07:37:32;;;;;;;5.93;1.00;;;;;;;;;;4290806;33;20484;-76
2023/08/07 07:39:58;;;;;;;3.20;1.08;;;;;;;;;;4277234;33;20367;-76
2023/08/07 07:42:31;;;;;;;2.45;1.08;;;;;;;;;;4256886;33;20591;-81
2023/08/07 07:44:57;;;;;;;1.10;1.00;;;;;;;;;;4266815;33;20046;-76
2023/08/07 07:47:23;;;;;;;1.08;1.08;;;;;;;;;;4261884;33;20037;-76
2023/08/07 07:50:03;;;;;;;1.05;1.00;;;;;;;;;;4262902;33;20175;-75
2023/08/07 07:52:30;;;;;;;12.73;1.02;;;;;;;;;;4268897;33;20471;-76
2023/08/07 07:54:55;;;;;;;2.95;1.05;;;;;;;;;;4264414;33;20054;-76
2023/08/07 07:57:22;;;;;;;0.90;0.90;;;;;;;;;;4275941;33;20053;-78
2023/08/07 07:59:48;;;;;;;1.00;1.00;;;;;;;;;;4277836;33;20045;-76
2023/08/07 08:02:15;;;;;;;3.37;0.93;;;;;;;;;;4278999;33;20041;-77
2023/08/07 08:04:42;;;;;;;1.10;1.10;;;;;;;;;;4284488;33;20112;-77
2023/08/07 08:07:08;;;;;;;0.90;0.90;;;;;;;;;;4281873;33;20427;-77
2023/08/07 08:09:34;;;;;;;3.42;1.12;;;;;;;;;;4279307;33;20044;-77
2023/08/07 08:12:01;;;;;;;1.25;1.02;;;;;;;;;;4281547;33;20075;-84
2023/08/07 08:14:26;;;;;;;5.85;0.80;;;;;;;;;;4280825;33;20050;-80
2023/08/07 08:16:53;;;;;;;6.20;0.98;;;;;;;;;;4284000;33;20390;-80
2023/08/07 08:19:19;;;;;;;5.87;1.45;;;;;;;;;;4296399;33;20425;-78
2023/08/07 08:21:45;;;;;;;1.80;0.98;;;;;;;;;;4295334;33;20057;-81
2023/08/07 08:24:11;;;;;;;0.98;0.93;;;;;;;;;;4266913;33;20050;-78
2023/08/07 08:26:37;;;;;;;0.95;0.95;;;;;;;;;;4266698;33;20067;-79
2023/08/07 08:29:05;;;;;;;2.85;1.27;;;;;;;;;;4266718;33;20073;-79
2023/08/07 08:31:31;;;;;;;0.93;0.93;;;;;;;;;;4268241;33;20460;-79
2023/08/07 08:33:58;;;;;;;3.62;1.00;;;;;;;;;;4238679;33;20042;-83
2023/08/07 08:36:24;;;;;;;1.08;1.08;;;;;;;;;;4251474;33;20058;-82
2023/08/07 08:38:51;;;;;;;0.93;0.93;;;;;;;;;;4239053;33;20050;-85
2023/08/07 08:41:18;;;;;;;1.05;1.05;;;;;;;;;;4237770;33;20511;-82
2023/08/07 08:43:45;;;;;;;1.05;1.05;;;;;;;;;;4237328;33;20043;-82
2023/08/07 08:46:14;;;;;;;0.93;0.85;;;;;;;;;;4235431;33;20080;-83
2023/08/07 08:48:40;;;;;;;4.85;0.93;;;;;;;;;;4239197;33;20046;-81
2023/08/07 08:51:08;;;;;;;1.00;1.00;;;;;;;;;;4239128;33;20397;-82
2023/08/07 08:53:34;;;;;;;5.03;1.17;;;;;;;;;;4237873;33;20050;-80
2023/08/07 08:56:01;;;;;;;1.17;0.93;;;;;;;;;;4245637;33;20057;-81
2023/08/07 08:58:28;;;;;;;1.30;1.30;;;;;;;;;;4249307;33;20109;-82
2023/08/07 09:00:54;;;;;;;1.10;1.10;;;;;;;;;;4253353;33;20305;-80
2023/08/07 09:03:20;;;;;;;1.52;1.17;;;;;;;;;;4254256;33;20069;-81
2023/08/07 09:05:47;;;;;;;1.27;1.10;;;;;;;;;;4241430;33;20072;-81
2023/08/07 09:08:13;;;;;;;1.30;1.00;;;;;;;;;;4227624;33;20031;-84
2023/08/07 09:10:40;;;;;;;1.08;1.00;;;;;;;;;;4222821;33;20059;-82
2023/08/07 09:13:10;;;;;;;1.42;1.23;;;;;;;;;;4225693;34;20289;-84
2023/08/07 09:15:38;;;;;;;1.65;1.08;;;;;;;;;;4225601;33;20072;-83
2023/08/07 09:18:07;;;;;;;1.10;1.10;;;;;;;;;;4235846;33;20030;-80
2023/08/07 09:20:35;;;;;;;4.12;1.40;;;;;;;;;;4238079;33;20047;-83
2023/08/07 09:23:00;;;;;;;1.08;1.08;;;;;;;;;;4237906;33;20042;-82
2023/08/07 09:25:28;;;;;;;1.48;1.08;;;;;;;;;;4238829;33;20059;-81
2023/08/07 09:27:54;;;;;;;0.90;0.90;;;;;;;;;;4262949;33;20579;-82
2023/08/07 09:30:21;;;;;;;3.50;1.30;;;;;;;;;;4273073;33;20049;-82
2023/08/07 09:32:47;;;;;;;1.12;1.08;;;;;;;;;;4252436;33;20049;-83
2023/08/07 09:35:14;;;;;;;1.23;1.20;;;;;;;;;;4209287;34;20046;-82
2023/08/07 09:37:42;;;;;;;2.92;1.42;;;;;;;;;;4211106;34;20394;-81
2023/08/07 09:40:12;;;;;;;1.52;1.30;;;;;;;;;;4211555;34;20078;-81
2023/08/07 09:42:38;;;;;;;5.70;1.02;;;;;;;;;;4212610;34;20031;-83
2023/08/07 09:45:18;;;;;;;0.90;0.90;;;;;;;;;;4211260;34;20047;-83
2023/08/07 09:47:44;;;;;;;1.27;1.00;;;;;;;;;;4211343;34;20472;-83
2023/08/07 09:50:15;;;;;;;1.83;1.35;;;;;;;;;;4211820;34;20054;-82
2023/08/07 09:52:41;;;;;;;1.00;1.00;;;;;;;;;;4205725;34;20479;-86
2023/08/07 09:55:08;;;;;;;1.15;1.12;;;;;;;;;;4208978;34;20110;-82
2023/08/07 09:57:34;;;;;;;5.37;1.33;;;;;;;;;;4207501;34;20108;-84
2023/08/07 10:00:00;;;;;;;1.02;1.00;;;;;;;;;;4209340;34;20592;-83
2023/08/07 10:02:29;;;;;;;1.62;1.52;;;;;;;;;;4204607;34;20055;-82
2023/08/07 10:04:55;;;;;;;4.18;2.22;;;;;;;;;;4220164;34;20117;-83
2023/08/07 10:07:21;;;;;;;1.67;1.08;;;;;;;;;;4274551;33;20522;-89
2023/08/07 10:09:48;;;;;;;1.20;1.20;;;;;;;;;;4273019;33;20047;-83
2023/08/07 10:12:15;;;;;;;1.12;0.90;;;;;;;;;;4278004;33;20120;-84
2023/08/07 10:14:42;;;;;;;2.03;1.15;;;;;;;;;;4259237;33;20068;-83
2023/08/07 10:17:08;;;;;;;2.30;1.55;;;;;;;;;;4254856;33;20038;-83
2023/08/07 10:19:35;;;;;;;2.67;1.35;;;;;;;;;;4252697;33;20455;-84
2023/08/07 10:22:02;;;;;;;1.85;1.20;;;;;;;;;;4196263;34;20035;-84
2023/08/07 10:24:29;;;;;;;4.12;1.70;;;;;;;;;;4219303;34;20530;-83
2023/08/07 10:26:56;;;;;;;7.20;1.85;;;;;;;;;;4225495;34;20035;-82
2023/08/07 10:29:24;;;;;;;2.25;1.55;;;;;;;;;;4227440;34;20059;-83
2023/08/07 10:31:51;;;;;;;2.53;1.23;;;;;;;;;;4227576;34;20031;-89
2023/08/07 10:34:17;;;;;;;1.15;1.15;;;;;;;;;;4224007;34;20042;-85
2023/08/07 10:36:44;;;;;;;4.35;1.42;;;;;;;;;;4225496;34;20071;-82
2023/08/07 10:39:16;;;;;;;3.10;1.10;;;;;;;;;;4225648;34;20067;-82
2023/08/07 10:41:46;;;;;;;1.23;0.90;;;;;;;;;;4224446;34;20038;-82
2023/08/07 10:44:19;;;;;;;4.53;0.93;;;;;;;;;;4208211;34;20061;-89
2023/08/07 10:46:53;;;;;;;1.35;1.30;;;;;;;;;;4223646;33;20067;-83
2023/08/07 10:49:35;;;;;;;1.23;1.20;;;;;;;;;;4226642;33;20090;-84
2023/08/07 10:52:08;;;;;;;1.35;1.25;;;;;;;;;;4264835;33;20046;-85
2023/08/07 10:54:42;;;;;;;2.00;1.00;;;;;;;;;;4267248;33;20057;-83
2023/08/07 10:57:13;;;;;;;1.15;1.08;;;;;;;;;;4237397;33;20117;-83
2023/08/07 10:59:59;;;;;;;1.10;1.10;;;;;;;;;;4253634;33;20085;-84
2023/08/07 11:02:26;;;;;;;0.95;0.95;;;;;;;;;;4385490;28;20447;-83
2023/08/07 11:04:53;;;;;;;1.85;0.85;;;;;;;;;;4254298;33;20064;-82
2023/08/07 11:07:29;;;;;;;0.98;0.93;;;;;;;;;;4254906;33;20072;-82
2023/08/07 11:09:56;;;;;;;2.92;1.25;;;;;;;;;;4252677;33;20050;-88
2023/08/07 11:12:28;;;;;;;1.20;1.20;;;;;;;;;;4251021;33;20452;-83
2023/08/07 11:14:57;;;;;;;1.20;1.17;;;;;;;;;;4224929;34;20046;-83
2023/08/07 11:17:26;;;;;;;5.40;1.25;;;;;;;;;;4195721;34;20066;-85
2023/08/07 11:19:53;;;;;;;2.00;1.30;;;;;;;;;;4195949;34;20061;-85
2023/08/07 11:22:19;;;;;;;1.08;1.00;;;;;;;;;;4193470;34;20492;-84
2023/08/07 11:24:48;;;;;;;1.23;1.12;;;;;;;;;;4182325;34;20498;-84
2023/08/07 11:27:14;;;;;;;2.75;1.95;;;;;;;;;;4185887;34;20060;-84
2023/08/07 11:29:40;;;;;;;1.70;1.00;;;;;;;;;;4210476;34;20518;-82
2023/08/07 11:32:08;;;;;;;5.43;1.15;;;;;;;;;;4207920;34;20485;-83
2023/08/07 11:34:34;;;;;;;1.30;1.20;;;;;;;;;;4210578;34;20056;-84
2023/08/07 11:37:00;;;;;;;1.23;1.10;;;;;;;;;;4210807;34;20108;-83
2023/08/07 11:39:27;;;;;;;1.65;1.00;;;;;;;;;;4223580;33;20082;-82
2023/08/07 11:41:53;;;;;;;9.80;2.87;;;;;;;;;;4238886;33;20461;-87
2023/08/07 11:44:19;;;;;;;5.25;1.40;;;;;;;;;;4239303;33;20083;-82
2023/08/07 11:46:46;;;;;;;1.45;1.00;;;;;;;;;;4240768;33;20569;-82
2023/08/07 11:49:12;;;;;;;1.92;1.23;;;;;;;;;;4241355;33;20057;-81
2023/08/07 11:51:39;;;;;;;1.25;1.25;;;;;;;;;;4240901;33;20046;-84
2023/08/07 11:54:05;;;;;;;2.95;1.30;;;;;;;;;;4239987;33;20060;-90
2023/08/07 11:56:31;;;;;;;1.45;1.20;;;;;;;;;;4239078;33;20090;-83
2023/08/07 11:58:57;;;;;;;1.23;1.20;;;;;;;;;;4239769;33;20113;-83
2023/08/07 12:01:24;;;;;;;1.60;1.50;;;;;;;;;;4267351;33;20463;-83
2023/08/07 12:04:07;;;;;;;1.15;1.15;;;;;;;;;;4268152;33;20126;-83
2023/08/07 12:06:35;;;;;;;1.33;1.20;;;;;;;;;;4268105;33;20066;-83
2023/08/07 12:09:02;;;;;;;0.90;0.90;;;;;;;;;;4267966;33;20042;-84
2023/08/07 12:11:29;;;;;;;1.42;1.27;;;;;;;;;;4256607;33;20045;-83
2023/08/07 12:13:55;;;;;;;4.87;1.50;;;;;;;;;;4255256;33;20427;-84
2023/08/07 12:16:21;;;;;;;2.28;1.48;;;;;;;;;;4251885;33;20471;-85
2023/08/07 12:18:48;;;;;;;1.70;1.23;;;;;;;;;;4240724;33;20811;-83
2023/08/07 12:21:16;;;;;;;5.53;1.73;;;;;;;;;;4240115;33;20497;-83
2023/08/07 12:23:43;;;;;;;1.60;1.50;;;;;;;;;;4227428;33;20443;-83
2023/08/07 12:26:10;;;;;;;5.32;1.58;;;;;;;;;;4225895;34;20047;-82
2023/08/07 12:28:36;;;;;;;3.30;1.15;;;;;;;;;;4236688;33;20038;-83
2023/08/07 12:31:09;;;;;;;1.40;1.37;;;;;;;;;;4239038;33;20092;-85
2023/08/07 12:33:35;;;;;;;3.22;1.40;;;;;;;;;;4227247;33;20058;-83
2023/08/07 12:36:02;;;;;;;1.70;1.60;;;;;;;;;;4225775;33;20051;-82
2023/08/07 12:38:28;;;;;;;3.50;1.60;;;;;;;;;;4225633;34;20043;-88
2023/08/07 12:40:55;;;;;;;5.55;1.98;;;;;;;;;;4225841;34;20396;-83
2023/08/07 12:43:21;;;;;;;4.15;1.62;;;;;;;;;;4225228;34;20034;-82
2023/08/07 12:45:47;;;;;;;5.05;1.25;;;;;;;;;;4226721;34;20065;-82
2023/08/07 12:48:13;;;;;;;2.08;1.30;;;;;;;;;;4226367;34;20100;-82
2023/08/07 12:50:39;;;;;;;1.33;1.23;;;;;;;;;;4260278;33;20045;-83
2023/08/07 12:53:06;;;;;;;5.30;1.75;;;;;;;;;;4240046;33;20047;-83
2023/08/07 12:55:32;;;;;;;1.40;1.30;;;;;;;;;;4239569;33;20062;-82
2023/08/07 12:57:58;;;;;;;3.72;1.83;;;;;;;;;;4262553;33;20034;-83
2023/08/07 13:00:25;;;;;;;9.52;1.30;;;;;;;;;;4267520;33;20059;-83
2023/08/07 13:02:51;;;;;;;2.42;1.37;;;;;;;;;;4267416;33;20467;-87
2023/08/07 13:05:21;;;;;;;2.60;1.27;;;;;;;;;;4266846;33;20042;-83
2023/08/07 13:07:48;;;;;;;6.72;1.58;;;;;;;;;;4282510;33;20029;-84
2023/08/07 13:10:15;;;;;;;3.55;1.30;;;;;;;;;;4282279;33;20083;-83
2023/08/07 13:12:42;;;;;;;3.45;1.40;;;;;;;;;;4281456;33;20069;-85
2023/08/07 13:15:12;;;;;;;2.83;1.48;;;;;;;;;;4280385;33;20441;-84
2023/08/07 13:17:39;;;;;;;1.52;1.42;;;;;;;;;;4282114;33;20287;-82
2023/08/07 13:20:07;;;;;;;1.50;1.40;;;;;;;;;;4282052;33;20049;-83
2023/08/07 13:22:34;;;;;;;2.05;1.00;;;;;;;;;;4283077;33;20080;-83
2023/08/07 13:25:03;;;;;;;3.05;1.50;;;;;;;;;;4281635;33;20579;-85
2023/08/07 13:27:29;;;;;;;3.83;1.15;;;;;;;;;;4280925;33;20037;-85
2023/08/07 13:29:56;;;;;;;1.08;1.08;;;;;;;;;;4280009;33;20345;-82
2023/08/07 13:32:22;;;;;;;1.30;1.20;;;;;;;;;;4295463;33;20041;-84
2023/08/07 13:34:48;;;;;;;12.65;2.10;;;;;;;;;;4266954;33;20054;-84
2023/08/07 13:37:14;;;;;;;3.17;1.25;;;;;;;;;;4267899;33;20038;-84
2023/08/07 13:39:41;;;;;;;2.50;1.80;;;;;;;;;;4253326;33;20081;-85
2023/08/07 13:42:07;;;;;;;2.53;1.42;;;;;;;;;;4254086;33;20064;-84
2023/08/07 13:47:06;;;;;;;1.62;1.50;;;;;;;;;;4253315;33;20034;-83
2023/08/07 13:49:34;;;;;;;1.23;1.08;;;;;;;;;;4250356;33;20427;-84
2023/08/07 13:52:00;;;;;;;1.40;1.27;;;;;;;;;;4237286;33;20060;-84
2023/08/07 13:54:26;;;;;;;0.98;0.98;;;;;;;;;;4239790;33;20054;-83
2023/08/07 13:56:52;;;;;;;1.20;1.10;;;;;;;;;;4240156;33;20056;-83
2023/08/07 13:59:19;;;;;;;1.87;1.12;;;;;;;;;;4239673;33;20046;-83
2023/08/07 14:01:45;;;;;;;2.50;1.15;;;;;;;;;;4227009;33;20050;-83
2023/08/07 14:04:13;;;;;;;4.10;0.90;;;;;;;;;;4223134;33;20090;-83
2023/08/07 14:06:40;;;;;;;1.12;1.12;;;;;;;;;;4258711;33;20072;-83
2023/08/07 14:09:09;;;;;;;1.73;1.62;;;;;;;;;;4267633;33;20061;-84
2023/08/07 14:11:35;;;;;;;5.55;1.58;;;;;;;;;;4268000;33;20168;-84
2023/08/07 14:14:01;;;;;;;3.33;1.45;;;;;;;;;;4266084;33;20045;-84
2023/08/07 14:16:27;;;;;;;2.28;1.08;;;;;;;;;;4265145;33;20068;-86
2023/08/07 14:18:54;;;;;;;9.93;2.10;;;;;;;;;;4267344;33;20446;-84
2023/08/07 14:21:20;;;;;;;1.27;1.17;;;;;;;;;;4267763;33;20041;-84
2023/08/07 14:23:47;;;;;;;2.67;1.17;;;;;;;;;;4267957;33;20068;-85
2023/08/07 14:26:13;;;;;;;1.65;1.20;;;;;;;;;;4266447;33;20064;-83
2023/08/07 14:28:41;;;;;;;3.80;1.55;;;;;;;;;;4266308;33;20115;-87
2023/08/07 14:31:08;;;;;;;1.05;0.98;;;;;;;;;;4264333;33;20341;-82
2023/08/07 14:33:35;;;;;;;1.30;1.30;;;;;;;;;;4266046;33;20091;-83
2023/08/07 14:36:01;;;;;;;6.43;1.75;;;;;;;;;;4267808;33;20476;-83
2023/08/07 14:38:28;;;;;;;2.28;1.20;;;;;;;;;;4278401;33;20418;-83
2023/08/07 14:40:55;;;;;;;2.15;1.50;;;;;;;;;;4280341;33;20459;-82
2023/08/07 14:43:22;;;;;;;2.42;1.15;;;;;;;;;;4270534;33;20107;-83
2023/08/07 14:45:48;;;;;;;2.65;1.40;;;;;;;;;;4282690;33;20475;-83
2023/08/07 14:48:15;;;;;;;1.42;1.40;;;;;;;;;;4286843;33;20056;-83
2023/08/07 14:50:41;;;;;;;2.45;1.40;;;;;;;;;;4284578;33;20102;-82
2023/08/07 14:53:07;;;;;;;1.12;1.12;;;;;;;;;;4284386;33;20046;-82
2023/08/07 14:55:33;;;;;;;1.00;1.00;;;;;;;;;;4282205;33;20059;-82
2023/08/07 14:58:00;;;;;;;3.42;1.37;;;;;;;;;;4282007;33;20063;-82
2023/08/07 15:00:28;;;;;;;3.17;1.17;;;;;;;;;;4281529;33;20036;-84
2023/08/07 15:02:57;;;;;;;2.40;1.40;;;;;;;;;;4280229;33;20180;-83
2023/08/07 15:05:23;;;;;;;1.33;1.05;;;;;;;;;;4280138;33;20045;-83
2023/08/07 15:07:49;;;;;;;1.42;1.33;;;;;;;;;;4279462;33;20065;-83
2023/08/07 15:10:16;;;;;;;1.48;1.37;;;;;;;;;;4283465;33;20150;-82
2023/08/07 15:12:42;;;;;;;1.60;1.48;;;;;;;;;;4268998;33;20054;-83
2023/08/07 15:15:08;;;;;;;2.50;1.02;;;;;;;;;;4282817;33;20059;-84
2023/08/07 15:17:36;;;;;;;3.37;1.30;;;;;;;;;;4282834;33;20480;-87
2023/08/07 15:20:02;;;;;;;4.85;1.50;;;;;;;;;;4286225;33;20065;-82
2023/08/07 15:22:28;;;;;;;1.33;1.33;;;;;;;;;;4285566;33;20091;-83
2023/08/07 15:24:54;;;;;;;2.03;1.45;;;;;;;;;;4287034;33;20083;-82
2023/08/07 15:27:20;;;;;;;1.25;1.10;;;;;;;;;;4285863;33;20078;-82
2023/08/07 15:29:46;;;;;;;8.63;1.27;;;;;;;;;;4285580;33;20109;-86
2023/08/07 15:32:13;;;;;;;4.55;1.70;;;;;;;;;;4285171;33;20517;-83
2023/08/07 15:34:39;;;;;;;1.77;1.42;;;;;;;;;;4286320;33;20034;-83
2023/08/07 15:37:06;;;;;;;3.42;1.92;;;;;;;;;;4286852;33;20049;-82
2023/08/07 15:39:33;;;;;;;1.87;1.30;;;;;;;;;;4285652;33;20438;-82
2023/08/07 15:41:59;;;;;;;1.20;1.17;;;;;;;;;;4282343;33;20053;-81
2023/08/07 15:44:25;;;;;;;1.77;1.30;;;;;;;;;;4284738;33;20452;-82
2023/08/07 15:46:51;;;;;;;2.05;1.85;;;;;;;;;;4285840;33;20084;-83
2023/08/07 15:49:18;;;;;;;5.85;1.55;;;;;;;;;;4286163;33;20088;-82
2023/08/07 15:51:44;;;;;;;4.40;1.40;;;;;;;;;;4284660;33;20092;-82
2023/08/07 15:54:11;;;;;;;2.35;1.83;;;;;;;;;;4285026;33;20312;-81
2023/08/07 15:56:37;;;;;;;1.40;1.10;;;;;;;;;;4284584;33;20424;-83
2023/08/07 15:59:03;;;;;;;2.58;1.50;;;;;;;;;;4298067;33;20092;-82
2023/08/07 16:01:29;;;;;;;7.68;2.15;;;;;;;;;;4296878;33;20052;-81
2023/08/07 16:03:58;;;;;;;1.98;1.80;;;;;;;;;;4294950;33;20067;-84
2023/08/07 16:06:25;;;;;;;6.55;1.62;;;;;;;;;;4298350;33;20083;-81
2023/08/07 16:08:54;;;;;;;1.55;1.45;;;;;;;;;;4298076;33;20545;-81
2023/08/07 16:11:20;;;;;;;1.40;1.30;;;;;;;;;;4282962;33;20083;-81
2023/08/07 16:13:46;;;;;;;6.12;1.67;;;;;;;;;;4281546;33;20435;-82
2023/08/07 16:16:13;;;;;;;11.60;1.62;;;;;;;;;;4280647;33;20045;-81
2023/08/07 16:18:40;;;;;;;1.17;1.17;;;;;;;;;;4267477;33;20312;-81
2023/08/07 16:21:14;;;;;;;1.23;1.10;;;;;;;;;;4267671;33;20034;-83
2023/08/07 16:23:41;;;;;;;4.05;1.30;;;;;;;;;;4253530;33;20035;-83
2023/08/07 16:26:07;;;;;;;1.55;1.45;;;;;;;;;;4253498;33;20084;-84
2023/08/07 16:28:33;;;;;;;1.52;1.42;;;;;;;;;;4253738;33;20418;-83
2023/08/07 16:31:00;;;;;;;1.60;1.30;;;;;;;;;;4243110;33;20080;-83
2023/08/07 16:33:26;;;;;;;0.98;0.98;;;;;;;;;;4239369;33;20046;-82
2023/08/07 16:35:53;;;;;;;7.03;1.50;;;;;;;;;;4239197;33;20043;-83
2023/08/07 16:38:20;;;;;;;1.40;1.25;;;;;;;;;;4238224;33;20118;-83
2023/08/07 16:40:46;;;;;;;1.10;1.10;;;;;;;;;;4240324;33;20527;-82
2023/08/07 16:43:12;;;;;;;1.30;1.20;;;;;;;;;;4240445;33;20084;-81
2023/08/07 16:45:38;;;;;;;1.35;1.15;;;;;;;;;;4240428;33;20045;-81